createdAt,value
2023-02-04T00:00:37.117Z,101845.72
2023-02-04T00:03:05.049Z,101849.31
2023-02-04T00:05:33.033Z,101847.56
2023-02-04T00:08:00.902Z,101837.84
2023-02-04T00:10:29.468Z,101833.41
2023-02-04T00:12:57.419Z,101843.25
2023-02-04T00:15:25.160Z,101845.06
2023-02-04T00:17:53.017Z,101860.19
2023-02-04T00:20:20.723Z,101860.22
2023-02-04T00:22:48.794Z,101849.63
2023-02-04T00:25:16.981Z,101860.31
2023-02-04T00:27:45.563Z,101840.81
2023-02-04T00:30:14.081Z,101856.72
2023-02-04T00:32:41.978Z,101859.44
2023-02-04T00:35:10.091Z,101859.44
2023-02-04T00:37:37.887Z,101879.91
2023-02-04T00:40:06.119Z,101888.75
2023-02-04T00:42:34.052Z,101880.72
2023-02-04T00:45:01.855Z,101880.72
2023-02-04T00:47:29.550Z,101886.00
2023-02-04T00:49:57.554Z,101896.66
2023-02-04T00:52:25.366Z,101914.41
2023-02-04T00:54:53.114Z,101921.50
2023-02-04T00:57:20.951Z,101917.94
2023-02-04T00:59:48.829Z,101896.59
2023-02-04T01:02:18.353Z,101889.50
2023-02-04T01:04:46.434Z,101916.13
2023-02-04T01:07:14.309Z,101908.94
2023-02-04T01:09:42.311Z,101900.09
2023-02-04T01:12:10.240Z,101906.22
2023-02-04T01:14:37.969Z,101904.50
2023-02-04T01:17:06.664Z,101914.16
2023-02-04T01:19:34.445Z,101918.50
2023-02-04T01:22:02.219Z,101924.72
2023-02-04T01:24:30.115Z,101907.94
2023-02-04T01:27:16.368Z,101922.09
2023-02-04T01:29:44.365Z,101931.84
2023-02-04T01:32:12.278Z,101922.06
2023-02-04T01:34:39.974Z,101920.19
2023-02-04T01:37:07.807Z,101921.03
2023-02-04T01:39:36.850Z,101922.75
2023-02-04T01:42:05.242Z,101915.69
2023-02-04T01:44:33.040Z,101921.84
2023-02-04T01:47:00.863Z,101918.31
2023-02-04T01:49:29.576Z,101925.44
2023-02-04T01:51:58.030Z,101927.19
2023-02-04T01:54:27.065Z,101935.16
2023-02-04T01:56:55.477Z,101923.63
2023-02-04T01:59:24.736Z,101933.31
2023-02-04T02:01:53.568Z,101930.66
2023-02-04T02:04:31.540Z,101932.44
2023-02-04T02:07:05.610Z,101930.69
2023-02-04T02:09:34.412Z,101930.72
2023-02-04T02:12:04.350Z,101922.88
2023-02-04T02:14:32.770Z,101937.06
2023-02-04T02:17:00.641Z,101921.22
2023-02-04T02:19:36.531Z,101928.25
2023-02-04T02:22:16.271Z,101927.47
2023-02-04T02:24:44.368Z,101933.78
2023-02-04T02:27:13.459Z,101934.72
2023-02-04T02:29:42.988Z,101934.78
2023-02-04T02:32:14.854Z,101940.28
2023-02-04T02:34:44.859Z,101950.00
2023-02-04T02:37:12.912Z,101953.59
2023-02-04T02:39:44.551Z,101953.59
2023-02-04T02:42:17.992Z,101947.38
2023-02-04T02:44:48.000Z,101957.19
2023-02-04T02:47:20.078Z,101963.41
2023-02-04T02:50:12.359Z,101965.22
2023-02-04T02:53:00.199Z,101974.97
2023-02-04T02:55:28.706Z,101963.44
2023-02-04T02:57:57.710Z,101964.38
2023-02-04T03:00:30.796Z,101960.75
2023-02-04T03:03:15.337Z,101961.75
2023-02-04T03:05:47.107Z,101965.31
2023-02-04T03:08:16.403Z,101961.78
2023-02-04T03:10:45.436Z,101966.25
2023-02-04T03:13:16.192Z,101968.03
2023-02-04T03:15:46.775Z,101976.84
2023-02-04T03:18:20.735Z,101966.22
2023-02-04T03:20:51.075Z,101975.06
2023-02-04T03:23:19.947Z,101983.03
2023-02-04T03:25:47.845Z,101994.63
2023-02-04T03:28:15.865Z,101996.38
2023-02-04T03:30:43.762Z,102001.66
2023-02-04T03:33:11.660Z,102006.06
2023-02-04T03:35:39.423Z,102006.94
2023-02-04T03:38:07.072Z,102003.44
2023-02-04T03:40:34.775Z,102004.28
2023-02-04T03:43:02.613Z,102007.81
2023-02-04T03:45:37.515Z,102012.28
2023-02-04T03:48:11.996Z,102017.66
2023-02-04T03:50:39.648Z,102015.91
2023-02-04T03:53:07.705Z,102011.47
2023-02-04T03:55:36.012Z,102014.19
2023-02-04T03:58:05.251Z,102008.94
2023-02-04T04:00:34.025Z,102009.03
2023-02-04T04:03:01.984Z,102002.84
2023-02-04T04:05:29.913Z,102002.94
2023-02-04T04:07:57.887Z,102024.22
2023-02-04T04:10:26.537Z,102019.84
2023-02-04T04:12:54.810Z,102017.16
2023-02-04T04:15:22.609Z,102020.75
2023-02-04T04:17:50.380Z,102017.22
2023-02-04T04:20:18.450Z,102014.56
2023-02-04T04:22:46.183Z,102020.81
2023-02-04T04:25:14.063Z,102013.78
2023-02-04T04:27:41.948Z,102035.03
2023-02-04T04:30:11.924Z,102033.22
2023-02-04T04:32:39.809Z,102032.34
2023-02-04T04:35:08.011Z,102028.78
2023-02-04T04:37:35.838Z,102036.75
2023-02-04T04:40:04.380Z,102034.09
2023-02-04T04:42:32.300Z,102026.13
2023-02-04T04:44:59.972Z,102034.13
2023-02-04T04:47:27.932Z,102034.16
2023-02-04T04:49:55.630Z,102025.28
2023-02-04T04:52:23.338Z,102034.13
2023-02-04T04:54:51.604Z,102038.56
2023-02-04T04:57:19.553Z,102028.84
2023-02-04T04:59:47.274Z,102035.00
2023-02-04T05:02:15.072Z,102031.44
2023-02-04T05:04:42.814Z,102033.22
2023-02-04T05:07:10.604Z,102027.94
2023-02-04T05:09:38.383Z,102041.25
2023-02-04T05:12:06.340Z,102054.50
2023-02-04T05:14:34.285Z,102053.59
2023-02-04T05:17:01.962Z,102054.47
2023-02-04T05:19:29.740Z,102054.50
2023-02-04T05:21:57.927Z,102061.56
2023-02-04T05:24:25.727Z,102054.47
2023-02-04T05:26:53.402Z,102042.16
2023-02-04T05:29:21.149Z,102058.03
2023-02-04T05:31:48.974Z,102065.13
2023-02-04T05:34:16.789Z,102054.47
2023-02-04T05:36:44.703Z,102052.69
2023-02-04T05:39:12.387Z,102056.22
2023-02-04T05:41:40.257Z,102058.00
2023-02-04T05:44:08.184Z,102061.56
2023-02-04T05:46:36.714Z,102058.00
2023-02-04T05:49:04.750Z,102060.69
2023-02-04T05:51:32.669Z,102069.56
2023-02-04T05:54:00.532Z,102074.84
2023-02-04T05:56:28.265Z,102081.94
2023-02-04T05:58:56.157Z,102085.47
2023-02-04T06:01:23.946Z,102095.25
2023-02-04T06:03:51.717Z,102084.66
2023-02-04T06:06:19.785Z,102089.94
2023-02-04T06:08:47.486Z,102101.44
2023-02-04T06:11:15.184Z,102107.63
2023-02-04T06:13:43.096Z,102109.38
2023-02-04T06:16:11.036Z,102123.53
2023-02-04T06:18:38.721Z,102115.56
2023-02-04T06:21:06.554Z,102117.34
2023-02-04T06:23:34.674Z,102122.69
2023-02-04T06:26:03.567Z,102127.16
2023-02-04T06:28:31.286Z,102123.66
2023-02-04T06:30:59.121Z,102139.56
2023-02-04T06:33:27.101Z,102137.81
2023-02-04T06:35:54.851Z,102144.03
2023-02-04T06:38:22.916Z,102146.69
2023-02-04T06:40:53.559Z,102153.78
2023-02-04T06:43:22.500Z,102150.28
2023-02-04T06:45:51.094Z,102149.38
2023-02-04T06:48:18.905Z,102151.16
2023-02-04T06:50:46.718Z,102151.16
2023-02-04T06:53:14.558Z,102153.84
2023-02-04T06:55:42.531Z,102159.16
2023-02-04T06:58:10.329Z,102164.50
2023-02-04T07:00:38.528Z,102162.69
2023-02-04T07:03:07.518Z,102152.09
2023-02-04T07:05:35.970Z,102163.59
2023-02-04T07:08:03.866Z,102163.56
2023-02-04T07:10:33.164Z,102163.56
2023-02-04T07:13:01.271Z,102164.47
2023-02-04T07:15:29.098Z,102171.59
2023-02-04T07:17:57.419Z,102181.38
2023-02-04T07:20:25.297Z,102189.38
2023-02-04T07:22:53.029Z,102191.13
2023-02-04T07:25:20.841Z,102185.84
2023-02-04T07:27:48.758Z,102196.47
2023-02-04T07:30:17.000Z,102183.22
2023-02-04T07:32:44.845Z,102201.78
2023-02-04T07:35:12.605Z,102196.50
2023-02-04T07:37:40.329Z,102209.78
2023-02-04T07:40:10.349Z,102209.78
2023-02-04T07:42:38.470Z,102209.81
2023-02-04T07:45:12.244Z,102216.91
2023-02-04T07:47:39.982Z,102208.00
2023-02-04T07:50:08.258Z,102222.16
2023-02-04T07:52:36.553Z,102226.56
2023-02-04T07:55:05.144Z,102232.78
2023-02-04T07:57:33.135Z,102226.59
2023-02-04T08:00:01.314Z,102238.09
2023-02-04T08:02:29.202Z,102245.16
2023-02-04T08:04:56.980Z,102246.03
2023-02-04T08:07:24.854Z,102255.84
2023-02-04T08:09:52.600Z,102254.97
2023-02-04T08:12:20.396Z,102254.94
2023-02-04T08:14:48.169Z,102267.34
2023-02-04T08:17:16.120Z,102267.31
2023-02-04T08:19:43.843Z,102271.72
2023-02-04T08:22:12.170Z,102269.91
2023-02-04T08:24:40.227Z,102267.25
2023-02-04T08:27:08.152Z,102254.84
2023-02-04T08:29:35.875Z,102278.78
2023-02-04T08:32:04.216Z,102263.69
2023-02-04T08:34:32.681Z,102267.22
2023-02-04T08:37:00.380Z,102287.63
2023-02-04T08:39:28.111Z,102280.50
2023-02-04T08:41:55.848Z,102277.81
2023-02-04T08:44:23.733Z,102287.56
2023-02-04T08:46:51.864Z,102276.94
2023-02-04T08:49:19.664Z,102285.81
2023-02-04T08:52:08.053Z,102299.97
2023-02-04T08:54:55.809Z,102302.63
2023-02-04T08:57:23.579Z,102306.16
2023-02-04T08:59:51.644Z,102307.91
2023-02-04T09:02:19.587Z,102312.38
2023-02-04T09:04:47.536Z,102316.75
2023-02-04T09:07:15.489Z,102312.28
2023-02-04T09:09:43.351Z,102317.59
2023-02-04T09:12:11.435Z,102327.34
2023-02-04T09:14:39.218Z,102322.84
2023-02-04T09:17:07.645Z,102323.66
2023-02-04T09:19:35.556Z,102309.50
2023-02-04T09:22:03.391Z,102316.56
2023-02-04T09:24:31.241Z,102329.94
2023-02-04T09:27:00.535Z,102325.47
2023-02-04T09:29:28.420Z,102331.66
2023-02-04T09:31:56.183Z,102313.03
2023-02-04T09:34:24.614Z,102336.09
2023-02-04T09:36:52.370Z,102320.97
2023-02-04T09:39:20.153Z,102320.97
2023-02-04T09:41:48.229Z,102331.59
2023-02-04T09:44:22.468Z,102330.69
2023-02-04T09:46:55.937Z,102340.38
2023-02-04T09:49:25.469Z,102331.50
2023-02-04T09:51:54.192Z,102339.41
2023-02-04T09:54:24.025Z,102344.72
2023-02-04T09:56:53.154Z,102342.03
2023-02-04T09:59:28.670Z,102340.19
2023-02-04T10:02:02.147Z,102337.50
2023-02-04T10:04:29.973Z,102337.44
2023-02-04T10:06:59.018Z,102344.53
2023-02-04T10:09:27.344Z,102337.41
2023-02-04T10:11:55.270Z,102343.63
2023-02-04T10:14:24.492Z,102350.75
2023-02-04T10:16:59.372Z,102355.19
2023-02-04T10:19:30.696Z,102354.31
2023-02-04T10:21:58.937Z,102356.13
2023-02-04T10:24:30.283Z,102356.09
2023-02-04T10:27:12.941Z,102358.75
2023-02-04T10:29:42.332Z,102360.50
2023-02-04T10:32:29.054Z,102355.16
2023-02-04T10:35:00.411Z,102356.06
2023-02-04T10:37:29.539Z,102349.06
2023-02-04T10:39:57.901Z,102353.38
2023-02-04T10:42:29.275Z,102355.97
2023-02-04T10:44:58.411Z,102369.22
2023-02-04T10:47:31.093Z,102366.47
2023-02-04T10:50:19.914Z,102361.94
2023-02-04T10:53:15.400Z,102354.78
2023-02-04T10:55:47.880Z,102361.84
2023-02-04T10:58:26.638Z,102361.78
2023-02-04T11:00:54.484Z,102360.91
2023-02-04T11:03:28.208Z,102367.94
2023-02-04T11:06:01.300Z,102364.28
2023-02-04T11:08:36.635Z,102356.25
2023-02-04T11:11:12.943Z,102356.16
2023-02-04T11:14:03.239Z,102364.94
2023-02-04T11:16:35.608Z,102358.59
2023-02-04T11:19:07.225Z,102347.78
2023-02-04T11:21:34.795Z,102358.63
2023-02-04T11:24:13.701Z,102356.66
2023-02-04T11:26:44.643Z,102356.63
2023-02-04T11:29:38.747Z,102354.78
2023-02-04T11:32:37.769Z,102362.81
2023-02-04T11:35:25.706Z,102353.97
2023-02-04T11:37:55.799Z,102364.66
2023-02-04T11:40:38.428Z,102360.16
2023-02-04T11:43:16.159Z,102354.97
2023-02-04T11:45:44.380Z,102362.13
2023-02-04T11:48:21.296Z,102346.19
2023-02-04T11:51:02.180Z,102350.69
2023-02-04T11:53:33.189Z,102360.53
2023-02-04T11:56:01.600Z,102360.63
2023-02-04T11:58:31.100Z,102351.78
2023-02-04T12:00:59.690Z,102360.69
2023-02-04T12:03:36.752Z,102359.00
2023-02-04T12:06:04.980Z,102341.31
2023-02-04T12:08:36.482Z,102345.75
2023-02-04T12:11:11.241Z,102352.00
2023-02-04T12:13:53.180Z,102352.00
2023-02-04T12:16:21.482Z,102332.53
2023-02-04T12:18:49.661Z,102346.78
2023-02-04T12:21:21.479Z,102342.38
2023-02-04T12:23:49.177Z,102350.38
2023-02-04T12:26:16.955Z,102347.72
2023-02-04T12:28:44.731Z,102339.69
2023-02-04T12:31:12.653Z,102350.34
2023-02-04T12:33:40.709Z,102344.97
2023-02-04T12:36:08.997Z,102339.56
2023-02-04T12:38:36.732Z,102343.00
2023-02-04T12:41:04.604Z,102350.91
2023-02-04T12:43:32.443Z,102350.75
2023-02-04T12:46:00.396Z,102338.22
2023-02-04T12:48:28.309Z,102340.00
2023-02-04T12:50:56.290Z,102344.31
2023-02-04T12:53:23.989Z,102351.44
2023-02-04T12:55:51.715Z,102353.16
2023-02-04T12:58:19.479Z,102349.63
2023-02-04T13:00:47.231Z,102356.75
2023-02-04T13:03:15.232Z,102335.56
2023-02-04T13:05:43.109Z,102353.25
2023-02-04T13:08:10.972Z,102358.63
2023-02-04T13:10:38.782Z,102347.97
2023-02-04T13:13:06.718Z,102352.44
2023-02-04T13:15:34.706Z,102355.13
2023-02-04T13:18:02.564Z,102352.41
2023-02-04T13:20:30.328Z,102355.03
2023-02-04T13:22:58.043Z,102351.41
2023-02-04T13:25:25.828Z,102343.25
2023-02-04T13:27:53.896Z,102352.97
2023-02-04T13:30:21.813Z,102356.44
2023-02-04T13:32:49.671Z,102355.50
2023-02-04T13:35:17.540Z,102348.31
2023-02-04T13:37:45.388Z,102350.13
2023-02-04T13:40:13.450Z,102356.28
2023-02-04T13:42:41.204Z,102349.22
2023-02-04T13:45:12.692Z,102355.41
2023-02-04T13:47:40.515Z,102345.75
2023-02-04T13:50:08.869Z,102352.88
2023-02-04T13:52:36.642Z,102347.56
2023-02-04T13:55:04.697Z,102344.88
2023-02-04T13:57:33.137Z,102328.09
2023-02-04T14:00:00.897Z,102360.91
2023-02-04T14:02:28.856Z,102350.22
2023-02-04T14:04:57.655Z,102359.13
2023-02-04T14:07:25.689Z,102345.81
2023-02-04T14:09:53.809Z,102360.06
2023-02-04T14:12:21.674Z,102367.28
2023-02-04T14:14:49.420Z,102364.63
2023-02-04T14:17:17.580Z,102376.28
2023-02-04T14:19:45.600Z,102372.78
2023-02-04T14:22:13.635Z,102380.84
2023-02-04T14:24:42.749Z,102372.06
2023-02-04T14:27:11.545Z,102365.06
2023-02-04T14:29:39.257Z,102377.53
2023-02-04T14:32:07.058Z,102364.28
2023-02-04T14:34:35.321Z,102370.53
2023-02-04T14:37:03.289Z,102365.22
2023-02-04T14:39:34.045Z,102370.59
2023-02-04T14:42:04.421Z,102375.03
2023-02-04T14:44:32.990Z,102376.78
2023-02-04T14:47:02.213Z,102368.72
2023-02-04T14:49:49.999Z,102367.81
2023-02-04T14:52:17.989Z,102378.44
2023-02-04T14:54:56.804Z,102369.53
2023-02-04T14:57:24.656Z,102372.19
2023-02-04T14:59:52.466Z,102367.75
2023-02-04T15:02:20.627Z,102379.28
2023-02-04T15:04:49.158Z,102374.88
2023-02-04T15:07:17.529Z,102374.81
2023-02-04T15:09:45.554Z,102363.22
2023-02-04T15:12:13.462Z,102374.75
2023-02-04T15:14:41.684Z,102376.47
2023-02-04T15:17:10.649Z,102375.63
2023-02-04T15:19:38.436Z,102382.75
2023-02-04T15:22:06.335Z,102383.72
2023-02-04T15:24:34.484Z,102381.94
2023-02-04T15:27:02.309Z,102370.50
2023-02-04T15:29:30.594Z,102382.03
2023-02-04T15:31:58.751Z,102370.56
2023-02-04T15:34:26.549Z,102376.78
2023-02-04T15:36:54.400Z,102390.94
2023-02-04T15:39:22.110Z,102382.03
2023-02-04T15:41:49.890Z,102389.13
2023-02-04T15:44:17.678Z,102389.19
2023-02-04T15:46:45.473Z,102391.84
2023-02-04T15:49:13.353Z,102395.47
2023-02-04T15:51:41.270Z,102392.84
2023-02-04T15:54:09.091Z,102387.56
2023-02-04T15:56:36.830Z,102395.59
2023-02-04T15:59:04.757Z,102393.84
2023-02-04T16:01:32.564Z,102408.09
2023-02-04T16:04:00.822Z,102401.00
2023-02-04T16:06:28.553Z,102406.34
2023-02-04T16:08:56.456Z,102409.06
2023-02-04T16:11:24.191Z,102399.38
2023-02-04T16:13:52.200Z,102408.28
2023-02-04T16:16:20.311Z,102411.91
2023-02-04T16:18:48.199Z,102418.13
2023-02-04T16:21:16.056Z,102405.72
2023-02-04T16:23:44.181Z,102414.72
2023-02-04T16:26:12.289Z,102421.88
2023-02-04T16:28:40.150Z,102419.25
2023-02-04T16:31:10.045Z,102444.16
2023-02-04T16:33:38.032Z,102431.72
2023-02-04T16:36:11.912Z,102434.44
2023-02-04T16:38:42.808Z,102447.78
2023-02-04T16:41:11.561Z,102440.69
2023-02-04T16:43:39.386Z,102442.50
2023-02-04T16:46:07.324Z,102439.03
2023-02-04T16:48:36.386Z,102455.91
2023-02-04T16:51:04.838Z,102447.94
2023-02-04T16:53:32.857Z,102444.44
2023-02-04T16:56:02.187Z,102441.78
2023-02-04T16:58:30.033Z,102440.03
2023-02-04T17:00:59.800Z,102447.16
2023-02-04T17:03:28.399Z,102454.31
2023-02-04T17:05:56.181Z,102458.75
2023-02-04T17:08:23.962Z,102453.44
2023-02-04T17:11:10.533Z,102462.34
2023-02-04T17:13:38.410Z,102469.50
2023-02-04T17:16:06.622Z,102469.50
2023-02-04T17:18:34.800Z,102479.28
2023-02-04T17:21:02.886Z,102475.72
2023-02-04T17:23:30.750Z,102470.38
2023-02-04T17:25:58.774Z,102479.28
2023-02-04T17:28:26.887Z,102478.47
2023-02-04T17:30:54.779Z,102473.16
2023-02-04T17:33:23.080Z,102474.06
2023-02-04T17:35:51.055Z,102482.06
2023-02-04T17:38:18.804Z,102478.56
2023-02-04T17:40:46.693Z,102490.97
2023-02-04T17:43:14.636Z,102481.19
2023-02-04T17:45:42.850Z,102481.22
2023-02-04T17:48:10.620Z,102474.13
2023-02-04T17:50:40.177Z,102481.22
2023-02-04T17:53:09.918Z,102477.69
2023-02-04T17:55:39.389Z,102486.63
2023-02-04T17:58:32.984Z,102490.16
2023-02-04T18:01:00.802Z,102488.41
2023-02-04T18:03:29.396Z,102483.09
2023-02-04T18:05:57.755Z,102495.53
2023-02-04T18:08:31.732Z,102488.44
2023-02-04T18:10:59.551Z,102483.13
2023-02-04T18:13:34.128Z,102505.31
2023-02-04T18:16:26.533Z,102499.09
2023-02-04T18:19:22.307Z,102502.66
2023-02-04T18:21:54.605Z,102502.66
2023-02-04T18:24:33.962Z,102500.88
2023-02-04T18:27:29.444Z,102503.53
2023-02-04T18:29:59.050Z,102499.09
2023-02-04T18:32:37.768Z,102494.69
2023-02-04T18:35:47.067Z,102492.91
2023-02-04T18:38:26.820Z,102494.66
2023-02-04T18:41:17.794Z,102503.53
2023-02-04T18:43:51.047Z,102504.44
2023-02-04T18:46:32.698Z,102499.13
2023-02-04T18:49:18.557Z,102511.53
2023-02-04T18:51:46.613Z,102516.84
2023-02-04T18:54:44.363Z,102511.53
2023-02-04T18:57:18.300Z,102507.13
2023-02-04T18:59:47.254Z,102513.31
2023-02-04T19:02:39.415Z,102515.09
2023-02-04T19:05:50.935Z,102512.44
2023-02-04T19:08:25.111Z,102520.44
2023-02-04T19:10:56.965Z,102521.28
2023-02-04T19:13:27.629Z,102521.28
2023-02-04T19:16:26.678Z,102510.66
2023-02-04T19:18:56.342Z,102508.88
2023-02-04T19:21:30.793Z,102517.75
2023-02-04T19:24:23.484Z,102525.72
2023-02-04T19:26:59.320Z,102521.28
2023-02-04T19:29:41.282Z,102519.50
2023-02-04T19:32:53.433Z,102516.88
2023-02-04T19:35:24.156Z,102516.84
2023-02-04T19:38:12.533Z,102520.38
2023-02-04T19:40:42.826Z,102510.63
2023-02-04T19:43:37.022Z,102507.97
2023-02-04T19:46:24.096Z,102518.59
2023-02-04T19:48:52.351Z,102508.00
2023-02-04T19:51:23.812Z,102523.91
2023-02-04T19:54:02.360Z,102522.16
2023-02-04T19:56:39.760Z,102503.53
2023-02-04T19:59:26.452Z,102507.06
2023-02-04T20:02:15.135Z,102520.41
2023-02-04T20:04:47.397Z,102519.53
2023-02-04T20:07:27.631Z,102511.53
2023-02-04T20:10:26.991Z,102515.97
2023-02-04T20:13:06.421Z,102514.19
2023-02-04T20:15:34.469Z,102519.50
2023-02-04T20:18:20.015Z,102513.31
2023-02-04T20:20:47.794Z,102526.59
2023-02-04T20:23:29.080Z,102511.56
2023-02-04T20:25:57.231Z,102524.84
2023-02-04T20:28:41.199Z,102529.28
2023-02-04T20:31:37.607Z,102530.16
2023-02-04T20:34:19.802Z,102525.75
2023-02-04T20:36:48.323Z,102528.38
2023-02-04T20:39:38.468Z,102530.16
2023-02-04T20:42:33.258Z,102532.84
2023-02-04T20:45:36.101Z,102537.28
2023-02-04T20:48:15.772Z,102531.03
2023-02-04T20:50:55.241Z,102539.06
2023-02-04T20:53:40.103Z,102541.72
2023-02-04T20:56:25.343Z,102549.69
2023-02-04T20:59:16.292Z,102552.34
2023-02-04T21:01:50.148Z,102559.41
2023-02-04T21:04:38.393Z,102561.19
2023-02-04T21:07:17.826Z,102555.00
2023-02-04T21:09:46.031Z,102562.94
2023-02-04T21:12:15.726Z,102560.31
2023-02-04T21:14:43.780Z,102569.16
2023-02-04T21:17:11.628Z,102570.06
2023-02-04T21:19:39.389Z,102571.84
2023-02-04T21:22:07.319Z,102565.63
2023-02-04T21:24:34.973Z,102570.06
2023-02-04T21:27:02.957Z,102575.38
2023-02-04T21:29:30.666Z,102584.28
2023-02-04T21:31:58.553Z,102557.66
2023-02-04T21:34:26.352Z,102570.06
2023-02-04T21:36:54.118Z,102565.66
2023-02-04T21:39:21.865Z,102575.41
2023-02-04T21:42:09.526Z,102577.19
2023-02-04T21:44:38.098Z,102572.75
2023-02-04T21:47:06.333Z,102571.88
2023-02-04T21:49:34.734Z,102568.31
2023-02-04T21:52:02.573Z,102563.00
2023-02-04T21:54:30.290Z,102562.97
2023-02-04T21:57:04.136Z,102570.97
2023-02-04T21:59:33.233Z,102565.66
2023-02-04T22:02:01.081Z,102562.13
2023-02-04T22:04:29.227Z,102559.44
2023-02-04T22:06:56.946Z,102565.66
2023-02-04T22:09:24.822Z,102562.09
2023-02-04T22:11:52.756Z,102558.56
2023-02-04T22:14:20.568Z,102549.66
2023-02-04T22:16:48.368Z,102555.00
2023-02-04T22:19:16.119Z,102552.34
2023-02-04T22:21:43.854Z,102555.00
2023-02-04T22:24:11.567Z,102543.47
2023-02-04T22:26:39.323Z,102536.34
2023-02-04T22:29:07.574Z,102545.22
2023-02-04T22:31:35.924Z,102552.31
2023-02-04T22:34:05.441Z,102545.22
2023-02-04T22:36:33.123Z,102547.88
2023-02-04T22:39:00.961Z,102546.97
2023-02-04T22:41:28.779Z,102544.28
2023-02-04T22:43:56.564Z,102540.72
2023-02-04T22:46:24.569Z,102555.78
2023-02-04T22:48:52.416Z,102542.50
2023-02-04T22:51:20.131Z,102554.03
2023-02-04T22:53:48.179Z,102560.22
2023-02-04T22:56:16.139Z,102549.56
2023-02-04T22:58:43.912Z,102534.50
2023-02-04T23:01:11.732Z,102538.03
2023-02-04T23:03:39.574Z,102540.69
2023-02-04T23:06:07.687Z,102539.75
2023-02-04T23:08:35.448Z,102544.19
2023-02-04T23:11:03.412Z,102538.00
2023-02-04T23:13:31.189Z,102546.78
2023-02-04T23:15:59.249Z,102556.56
2023-02-04T23:18:27.152Z,102559.19
2023-02-04T23:20:55.087Z,102555.63
2023-02-04T23:23:23.028Z,102550.28
2023-02-04T23:25:50.801Z,102557.38
2023-02-04T23:28:19.447Z,102548.53
2023-02-04T23:30:47.511Z,102556.47
2023-02-04T23:33:15.402Z,102544.97
2023-02-04T23:35:43.716Z,102550.28
2023-02-04T23:38:11.441Z,102544.03
2023-02-04T23:40:39.171Z,102544.94
2023-02-04T23:43:06.949Z,102552.00
2023-02-04T23:45:35.207Z,102549.34
2023-02-04T23:48:03.303Z,102544.00
2023-02-04T23:50:31.088Z,102545.75
2023-02-04T23:52:59.148Z,102546.66
2023-02-04T23:55:27.173Z,102553.72
2023-02-04T23:57:54.967Z,102557.25
